メインページ
METAR-TAF:

METAR-TAF

空港 :

キュラソー島, オランダ領アンティル

ハト国際空港

緯度: 12-12N, 経度: 068-58W, 海抜: 9m

現時点の気象観測

当レポートは40分前の00:00(UTC)に作成
東/北東の風 5kt
気温 26°C
湿度 74%
気圧 1011 hPa
視程10km以上
1,500メートル以下は雲なし、積乱雲なし

METAR: TNCC 120000Z 06005KT CAVOK 26/21 Q1011 NOSIG

時間: 20:40 (00:40 UTC)

予報

当レポートは2時間40分前の22:00(UTC)に作成
予報は12日の 00時(UTC)から 12日の 24時(UTC)まで有効
東/北東の風 5kt
視程10km以上
高度1800ftの雲は散在している
12日の 06時(UTC)から 12日の 10時(UTC)まで一時的に
高度1400ftの千切れ雲あり

TAF: TNCC 112200Z 1200/1224 07005KT 9999 SCT018 TEMPO 1206/1210 BKN014

4,000以上の空港の気象観測と天気予報(METAR報とTAF報)

利用可能な観測所は地図上に黄色い丸と赤い丸で示す。

丸の上にカーソルを重ねると観測所名を参照できる。

次にクリックすると気象観測と天気予報を参照できる。

マップの切り替え:黒色「×」印の緑ボタンをクリックして拡大、「-」印の緑ボタンをクリックして縮小、緑色の三角印をクリックして隣りの地図に切り替え


METAR-TAF: